createdAt,value
2022-07-29T00:01:22.465Z,24.24
2022-07-29T00:03:50.898Z,24.25
2022-07-29T00:06:19.152Z,24.19
2022-07-29T00:08:47.341Z,24.22
2022-07-29T00:11:15.540Z,24.25
2022-07-29T00:13:46.501Z,24.18
2022-07-29T00:16:18.858Z,24.22
2022-07-29T00:18:48.345Z,24.22
2022-07-29T00:21:16.618Z,24.38
2022-07-29T00:23:44.696Z,24.15
2022-07-29T00:26:12.993Z,24.13
2022-07-29T00:28:41.038Z,24.17
2022-07-29T00:31:16.860Z,24.15
2022-07-29T00:33:44.937Z,24.06
2022-07-29T00:36:13.500Z,24.14
2022-07-29T00:38:45.204Z,24.20
2022-07-29T00:41:13.427Z,23.97
2022-07-29T00:43:41.977Z,23.89
2022-07-29T00:46:10.269Z,23.96
2022-07-29T00:48:38.632Z,23.90
2022-07-29T00:51:09.322Z,23.82
2022-07-29T00:53:38.929Z,23.79
2022-07-29T00:56:07.339Z,23.73
2022-07-29T00:58:35.410Z,23.85
2022-07-29T01:01:03.543Z,23.82
2022-07-29T01:03:31.671Z,23.75
2022-07-29T01:06:00.633Z,23.63
2022-07-29T01:08:28.757Z,23.75
2022-07-29T01:10:58.401Z,23.62
2022-07-29T01:13:27.732Z,23.57
2022-07-29T01:16:00.702Z,23.54
2022-07-29T01:18:34.390Z,23.49
2022-07-29T01:21:30.242Z,23.45
2022-07-29T01:24:13.967Z,23.45
2022-07-29T01:26:49.003Z,23.39
2022-07-29T01:29:36.169Z,23.43
2022-07-29T01:32:18.048Z,23.65
2022-07-29T01:35:04.264Z,23.65
2022-07-29T01:37:43.303Z,23.46
2022-07-29T01:40:16.073Z,23.51
2022-07-29T01:42:46.624Z,23.47
2022-07-29T01:45:20.368Z,23.37
2022-07-29T01:47:58.714Z,23.25
2022-07-29T01:50:33.534Z,23.23
2022-07-29T01:53:04.269Z,23.23
2022-07-29T01:55:37.228Z,23.48
2022-07-29T01:58:07.392Z,23.63
2022-07-29T02:00:38.098Z,23.52
2022-07-29T02:03:10.960Z,23.41
2022-07-29T02:05:41.928Z,23.21
2022-07-29T02:08:12.309Z,23.15
2022-07-29T02:10:42.137Z,23.14
2022-07-29T02:13:13.286Z,23.16
2022-07-29T02:15:44.617Z,23.14
2022-07-29T02:18:17.747Z,22.99
2022-07-29T02:20:49.356Z,22.96
2022-07-29T02:23:21.421Z,22.89
2022-07-29T02:25:51.339Z,22.81
2022-07-29T02:28:22.666Z,22.78
2022-07-29T02:30:55.704Z,22.96
2022-07-29T02:33:26.237Z,23.08
2022-07-29T02:35:54.790Z,22.95
2022-07-29T02:38:43.529Z,22.85
2022-07-29T02:41:15.647Z,22.76
2022-07-29T02:43:47.138Z,22.63
2022-07-29T02:46:31.242Z,22.52
2022-07-29T02:49:04.922Z,22.55
2022-07-29T02:51:44.755Z,22.47
2022-07-29T02:54:21.420Z,22.53
2022-07-29T02:56:53.640Z,22.47
2022-07-29T02:59:27.288Z,22.28
2022-07-29T03:01:58.066Z,22.46
2022-07-29T03:04:29.666Z,22.49
2022-07-29T03:07:01.590Z,22.40
2022-07-29T03:09:31.762Z,22.43
2022-07-29T03:12:00.054Z,22.32
2022-07-29T03:14:29.014Z,22.27
2022-07-29T03:16:59.906Z,22.35
2022-07-29T03:19:29.196Z,22.13
2022-07-29T03:21:58.530Z,22.21
2022-07-29T03:24:28.976Z,21.93
2022-07-29T03:26:58.275Z,22.09
2022-07-29T03:29:33.956Z,22.02
2022-07-29T03:32:07.960Z,21.86
2022-07-29T03:34:38.534Z,22.01
2022-07-29T03:37:07.880Z,21.98
2022-07-29T03:39:41.468Z,22.04
2022-07-29T03:42:12.516Z,21.90
2022-07-29T03:44:42.902Z,22.02
2022-07-29T03:47:14.864Z,22.07
2022-07-29T03:49:44.341Z,22.24
2022-07-29T03:52:12.883Z,22.37
2022-07-29T03:54:41.561Z,22.31
2022-07-29T03:57:12.536Z,22.25
2022-07-29T03:59:42.124Z,22.24
2022-07-29T04:02:14.795Z,22.30
2022-07-29T04:04:44.891Z,22.52
2022-07-29T04:07:14.768Z,22.63
2022-07-29T04:09:44.005Z,22.79
2022-07-29T04:12:12.457Z,22.78
2022-07-29T04:14:40.913Z,22.91
2022-07-29T04:17:09.059Z,23.26
2022-07-29T04:19:38.546Z,23.18
2022-07-29T04:22:06.685Z,23.39
2022-07-29T04:24:34.735Z,23.29
2022-07-29T04:27:02.798Z,23.01
2022-07-29T04:29:30.868Z,23.08
2022-07-29T04:31:59.056Z,23.40
2022-07-29T04:34:27.942Z,23.57
2022-07-29T04:36:58.112Z,23.80
2022-07-29T04:39:29.491Z,23.84
2022-07-29T04:41:58.984Z,24.27
2022-07-29T04:44:28.567Z,24.64
2022-07-29T04:46:58.461Z,25.07
2022-07-29T04:49:26.642Z,24.67
2022-07-29T04:51:54.893Z,24.09
2022-07-29T04:54:24.761Z,24.59
2022-07-29T04:56:53.814Z,25.11
2022-07-29T04:59:22.028Z,25.29
2022-07-29T05:01:50.205Z,26.22
2022-07-29T05:04:18.778Z,26.40
2022-07-29T05:06:47.432Z,27.43
2022-07-29T05:09:15.649Z,27.46
2022-07-29T05:11:45.149Z,28.05
2022-07-29T05:14:13.545Z,28.07
2022-07-29T05:16:42.916Z,28.56
2022-07-29T05:19:14.323Z,28.34
2022-07-29T05:21:43.397Z,28.16
2022-07-29T05:24:11.486Z,27.65
2022-07-29T05:26:39.828Z,28.29
2022-07-29T05:29:43.960Z,28.35
2022-07-29T05:31:57.940Z,28.34
2022-07-29T05:34:26.488Z,28.55
2022-07-29T05:36:55.371Z,27.33
2022-07-29T05:39:23.463Z,28.44
2022-07-29T05:42:11.915Z,28.20
2022-07-29T05:44:41.732Z,28.40
2022-07-29T05:47:09.851Z,28.66
2022-07-29T05:49:38.085Z,28.79
2022-07-29T05:52:07.071Z,29.31
2022-07-29T05:54:35.154Z,29.42
2022-07-29T05:57:03.571Z,29.89
2022-07-29T05:59:31.735Z,30.03
2022-07-29T06:02:01.236Z,30.41
2022-07-29T06:04:29.547Z,30.25
2022-07-29T06:06:57.648Z,29.68
2022-07-29T06:09:25.879Z,30.27
2022-07-29T06:11:54.506Z,30.15
2022-07-29T06:14:22.582Z,30.49
2022-07-29T06:16:50.898Z,30.72
2022-07-29T06:19:20.445Z,30.74
2022-07-29T06:21:49.326Z,31.13
2022-07-29T06:24:18.533Z,31.48
2022-07-29T06:26:47.480Z,31.68
2022-07-29T06:29:15.796Z,31.25
2022-07-29T06:31:43.951Z,31.52
2022-07-29T06:34:12.138Z,31.63
2022-07-29T06:36:41.678Z,31.71
2022-07-29T06:39:11.648Z,31.45
2022-07-29T06:41:40.877Z,30.83
2022-07-29T06:44:09.006Z,31.10
2022-07-29T06:46:37.461Z,31.34
2022-07-29T06:49:06.636Z,31.42
2022-07-29T06:51:34.781Z,32.00
2022-07-29T06:54:06.582Z,32.00
2022-07-29T06:56:38.244Z,31.92
2022-07-29T06:59:08.645Z,31.89
2022-07-29T07:01:37.801Z,32.25
2022-07-29T07:04:06.160Z,32.66
2022-07-29T07:06:34.630Z,32.11
2022-07-29T07:09:04.356Z,31.51
2022-07-29T07:11:32.652Z,31.01
2022-07-29T07:14:14.424Z,30.63
2022-07-29T07:16:42.680Z,30.45
2022-07-29T07:19:11.149Z,30.75
2022-07-29T07:21:42.419Z,30.81
2022-07-29T07:24:12.669Z,30.96
2022-07-29T07:26:41.317Z,30.69
2022-07-29T07:29:09.506Z,30.30
2022-07-29T07:31:39.014Z,30.31
2022-07-29T07:34:07.354Z,30.43
2022-07-29T07:36:35.468Z,30.37
2022-07-29T07:39:04.469Z,30.23
2022-07-29T07:41:34.057Z,30.35
2022-07-29T07:44:02.280Z,30.41
2022-07-29T07:46:30.467Z,30.19
2022-07-29T07:48:58.634Z,30.26
2022-07-29T07:51:27.068Z,30.38
2022-07-29T07:53:55.137Z,30.40
2022-07-29T07:56:23.252Z,30.42
2022-07-29T07:58:52.708Z,30.33
2022-07-29T08:01:23.849Z,30.39
2022-07-29T08:03:52.415Z,30.37
2022-07-29T08:06:20.557Z,30.29
2022-07-29T08:08:48.676Z,30.22
2022-07-29T08:11:16.764Z,30.27
2022-07-29T08:13:45.220Z,30.49
2022-07-29T08:16:16.316Z,30.46
2022-07-29T08:18:46.401Z,30.40
2022-07-29T08:21:15.591Z,30.61
2022-07-29T08:23:57.656Z,30.56
2022-07-29T08:26:28.099Z,30.07
2022-07-29T08:28:56.236Z,29.95
2022-07-29T08:31:25.793Z,30.18
2022-07-29T08:33:54.050Z,30.32
2022-07-29T08:36:23.312Z,30.35
2022-07-29T08:38:51.976Z,30.42
2022-07-29T08:41:21.012Z,30.26
2022-07-29T08:43:49.683Z,30.17
2022-07-29T08:46:18.477Z,30.17
2022-07-29T08:48:49.247Z,30.33
2022-07-29T08:51:19.922Z,30.45
2022-07-29T08:53:50.346Z,30.44
2022-07-29T08:56:19.601Z,30.38
2022-07-29T08:58:52.405Z,30.56
2022-07-29T09:01:35.840Z,30.70
2022-07-29T09:04:12.015Z,30.83
2022-07-29T09:06:45.477Z,30.77
2022-07-29T09:09:14.716Z,30.66
2022-07-29T09:11:43.845Z,30.56
2022-07-29T09:14:14.283Z,30.64
2022-07-29T09:16:54.252Z,30.84
2022-07-29T09:19:26.242Z,30.85
2022-07-29T09:22:03.608Z,31.01
2022-07-29T09:24:43.012Z,31.17
2022-07-29T09:27:19.676Z,31.09
2022-07-29T09:29:48.191Z,31.11
2022-07-29T09:32:16.393Z,31.18
2022-07-29T09:34:46.176Z,31.31
2022-07-29T09:37:27.386Z,30.97
2022-07-29T09:39:56.340Z,31.17
2022-07-29T09:42:33.329Z,31.20
2022-07-29T09:45:01.463Z,31.42
2022-07-29T09:47:45.850Z,31.28
2022-07-29T09:50:16.115Z,31.42
2022-07-29T09:52:49.380Z,31.37
2022-07-29T09:55:19.820Z,31.39
2022-07-29T09:57:49.334Z,31.32
2022-07-29T10:00:20.212Z,31.46
2022-07-29T10:02:49.290Z,31.74
2022-07-29T10:05:24.380Z,31.93
2022-07-29T10:07:57.387Z,31.95
2022-07-29T10:10:27.490Z,31.70
2022-07-29T10:12:57.539Z,31.57
2022-07-29T10:15:30.804Z,31.52
2022-07-29T10:17:59.179Z,31.44
2022-07-29T10:20:29.571Z,31.79
2022-07-29T10:22:57.782Z,32.02
2022-07-29T10:25:26.544Z,31.94
2022-07-29T10:27:55.920Z,31.92
2022-07-29T10:30:26.554Z,31.76
2022-07-29T10:33:11.081Z,31.98
2022-07-29T10:36:03.514Z,32.08
2022-07-29T10:38:48.117Z,32.14
2022-07-29T10:41:44.381Z,32.43
2022-07-29T10:44:19.182Z,32.57
2022-07-29T10:46:48.733Z,33.06
2022-07-29T10:49:18.850Z,33.41
2022-07-29T10:51:59.790Z,33.66
2022-07-29T10:54:44.098Z,33.97
2022-07-29T10:57:17.375Z,34.12
2022-07-29T10:59:47.232Z,34.13
2022-07-29T11:02:44.841Z,34.24
2022-07-29T11:05:15.453Z,34.12
2022-07-29T11:08:31.857Z,33.97
2022-07-29T11:11:35.258Z,33.96
2022-07-29T11:14:03.386Z,33.74
2022-07-29T11:17:05.881Z,33.66
2022-07-29T11:19:36.302Z,33.56
2022-07-29T11:22:05.490Z,33.72
2022-07-29T11:24:34.973Z,34.00
2022-07-29T11:27:20.699Z,34.09
2022-07-29T11:29:55.171Z,33.87
2022-07-29T11:32:25.516Z,34.11
2022-07-29T11:35:17.343Z,33.96
2022-07-29T11:37:52.830Z,33.94
2022-07-29T11:40:25.912Z,34.14
2022-07-29T11:42:55.363Z,34.24
2022-07-29T11:45:48.080Z,34.36
2022-07-29T11:51:13.305Z,34.34
2022-07-29T11:53:41.651Z,34.21
2022-07-29T11:56:11.332Z,34.06
2022-07-29T11:58:47.051Z,34.29
2022-07-29T12:01:16.203Z,34.20
2022-07-29T12:03:44.920Z,33.98
2022-07-29T12:06:17.496Z,34.04
2022-07-29T12:07:03.269Z,34.50
2022-07-29T12:08:47.389Z,33.90
2022-07-29T12:11:21.347Z,33.90
2022-07-29T12:13:52.185Z,33.59
2022-07-29T12:16:29.477Z,33.69
2022-07-29T12:19:03.624Z,33.53
2022-07-29T12:21:54.019Z,33.35
2022-07-29T12:24:26.523Z,33.33
2022-07-29T12:26:57.273Z,33.35
2022-07-29T12:29:34.746Z,33.54
2022-07-29T12:32:05.506Z,33.48
2022-07-29T12:34:35.411Z,33.62
2022-07-29T12:37:04.329Z,33.65
2022-07-29T12:39:32.863Z,33.72
2022-07-29T12:42:04.520Z,33.74
2022-07-29T12:44:48.106Z,33.84
2022-07-29T12:47:16.514Z,34.11
2022-07-29T12:49:44.659Z,34.23
2022-07-29T12:52:37.128Z,34.27
2022-07-29T12:55:06.428Z,33.89
2022-07-29T12:57:47.157Z,33.99
2022-07-29T13:00:17.790Z,34.12
2022-07-29T13:02:46.282Z,34.05
2022-07-29T13:05:14.680Z,34.17
2022-07-29T13:07:55.148Z,33.81
2022-07-29T13:10:26.903Z,34.02
2022-07-29T13:13:13.695Z,34.10
2022-07-29T13:15:45.384Z,34.11
2022-07-29T13:18:28.896Z,34.01
2022-07-29T13:20:58.382Z,34.07
2022-07-29T13:23:26.491Z,34.18
2022-07-29T13:25:54.608Z,34.27
2022-07-29T13:28:23.483Z,34.30
2022-07-29T13:30:53.106Z,34.36
2022-07-29T13:33:21.378Z,34.30
2022-07-29T13:35:49.574Z,34.27
2022-07-29T13:38:18.027Z,34.14
2022-07-29T13:40:46.109Z,33.90
2022-07-29T13:43:14.437Z,33.61
2022-07-29T13:45:42.671Z,33.83
2022-07-29T13:48:12.365Z,33.85
2022-07-29T13:50:40.636Z,33.72
2022-07-29T13:53:08.724Z,33.66
2022-07-29T13:55:36.843Z,33.92
2022-07-29T13:58:04.900Z,34.06
2022-07-29T14:00:33.286Z,34.11
2022-07-29T14:03:01.409Z,34.18
2022-07-29T14:05:30.854Z,34.12
2022-07-29T14:07:58.920Z,34.12
2022-07-29T14:10:28.135Z,33.90
2022-07-29T14:12:56.291Z,33.89
2022-07-29T14:15:24.915Z,33.88
2022-07-29T14:17:53.136Z,33.84
2022-07-29T14:20:21.463Z,33.89
2022-07-29T14:22:50.870Z,33.85
2022-07-29T14:25:18.922Z,33.77
2022-07-29T14:27:50.084Z,33.79
2022-07-29T14:30:18.138Z,33.77
2022-07-29T14:32:46.266Z,33.76
2022-07-29T14:35:14.660Z,33.84
2022-07-29T14:37:42.781Z,33.89
2022-07-29T14:40:13.208Z,33.86
2022-07-29T14:42:42.178Z,33.91
2022-07-29T14:45:11.495Z,33.91
2022-07-29T14:47:40.927Z,33.77
2022-07-29T14:50:10.162Z,33.81
2022-07-29T14:52:38.918Z,33.87
2022-07-29T14:55:16.602Z,33.82
2022-07-29T14:57:50.843Z,33.79
2022-07-29T15:00:19.780Z,33.85
2022-07-29T15:03:01.303Z,34.04
2022-07-29T15:05:30.325Z,33.97
2022-07-29T15:07:58.552Z,34.02
2022-07-29T15:10:28.059Z,34.04
2022-07-29T15:12:58.167Z,33.99
2022-07-29T15:15:26.565Z,34.04
2022-07-29T15:17:54.894Z,33.99
2022-07-29T15:20:26.203Z,33.80
2022-07-29T15:22:54.337Z,33.81
2022-07-29T15:25:22.469Z,33.77
2022-07-29T15:27:53.333Z,33.85
2022-07-29T15:30:33.581Z,33.92
2022-07-29T15:33:03.901Z,34.01
2022-07-29T15:35:32.206Z,34.02
2022-07-29T15:38:00.725Z,34.07
2022-07-29T15:40:28.835Z,33.89
2022-07-29T15:42:57.101Z,33.87
2022-07-29T15:45:26.827Z,33.89
2022-07-29T15:48:00.845Z,33.84
2022-07-29T15:50:28.944Z,33.79
2022-07-29T15:52:57.061Z,33.77
2022-07-29T15:55:25.428Z,33.64
2022-07-29T15:57:57.192Z,33.63
2022-07-29T16:00:29.569Z,33.57
2022-07-29T16:02:57.706Z,33.49
2022-07-29T16:05:26.278Z,33.38
2022-07-29T16:07:54.406Z,33.46
2022-07-29T16:10:22.620Z,33.35
2022-07-29T16:12:50.766Z,33.40
2022-07-29T16:15:19.042Z,33.33
2022-07-29T16:17:50.377Z,33.27
2022-07-29T16:20:18.706Z,33.25
2022-07-29T16:22:46.925Z,33.28
2022-07-29T16:25:15.219Z,33.19
2022-07-29T16:27:43.387Z,33.23
2022-07-29T16:30:12.263Z,33.25
2022-07-29T16:32:40.841Z,33.22
2022-07-29T16:35:10.820Z,33.18
2022-07-29T16:37:39.223Z,33.34
2022-07-29T16:40:11.710Z,33.22
2022-07-29T16:42:48.177Z,33.19
2022-07-29T16:45:18.147Z,33.11
2022-07-29T16:48:00.126Z,33.05
2022-07-29T16:50:30.598Z,33.01
2022-07-29T16:52:59.107Z,32.98
2022-07-29T16:55:27.263Z,32.94
2022-07-29T16:57:55.441Z,32.91
2022-07-29T17:00:24.583Z,32.87
2022-07-29T17:02:52.735Z,32.81
2022-07-29T17:05:20.824Z,32.73
2022-07-29T17:07:50.289Z,32.74
2022-07-29T17:10:18.401Z,32.65
2022-07-29T17:12:46.574Z,32.59
2022-07-29T17:15:16.735Z,32.54
2022-07-29T17:17:54.807Z,32.53
2022-07-29T17:20:23.764Z,32.51
2022-07-29T17:22:53.245Z,32.46
2022-07-29T17:25:21.455Z,32.39
2022-07-29T17:27:50.652Z,32.34
2022-07-29T17:30:19.479Z,32.38
2022-07-29T17:32:47.673Z,32.41
2022-07-29T17:35:33.329Z,32.37
2022-07-29T17:38:02.861Z,32.26
2022-07-29T17:40:31.213Z,32.15
2022-07-29T17:42:59.336Z,32.12
2022-07-29T17:45:50.083Z,32.01
2022-07-29T17:48:15.635Z,31.88
2022-07-29T17:50:43.733Z,31.79
2022-07-29T17:53:16.413Z,31.62
2022-07-29T17:55:51.879Z,31.50
2022-07-29T17:58:20.182Z,31.37
2022-07-29T18:00:48.433Z,31.25
2022-07-29T18:03:16.798Z,31.15
2022-07-29T18:05:44.999Z,31.06
2022-07-29T18:08:14.718Z,30.98
2022-07-29T18:10:42.820Z,30.92
2022-07-29T18:13:12.636Z,30.83
2022-07-29T18:15:41.406Z,30.73
2022-07-29T18:18:09.840Z,30.69
2022-07-29T18:20:38.116Z,30.69
2022-07-29T18:23:06.202Z,30.66
2022-07-29T18:25:36.028Z,30.65
2022-07-29T18:28:05.028Z,30.63
2022-07-29T18:30:36.819Z,30.67
2022-07-29T18:33:24.699Z,30.61
2022-07-29T18:36:10.499Z,30.53
2022-07-29T18:38:40.630Z,30.49
2022-07-29T18:41:10.174Z,30.46
2022-07-29T18:43:38.333Z,30.48
2022-07-29T18:46:06.776Z,30.47
2022-07-29T18:48:35.391Z,30.43
2022-07-29T18:51:03.474Z,30.41
2022-07-29T18:53:37.897Z,30.45
2022-07-29T18:56:06.235Z,30.66
2022-07-29T18:58:37.180Z,30.45
2022-07-29T19:01:05.310Z,30.19
2022-07-29T19:03:33.483Z,29.98
2022-07-29T19:06:01.645Z,29.87
2022-07-29T19:08:29.900Z,29.87
2022-07-29T19:10:58.061Z,29.71
2022-07-29T19:13:26.961Z,29.53
2022-07-29T19:15:56.492Z,29.44
2022-07-29T19:18:24.758Z,29.31
2022-07-29T19:20:53.729Z,29.30
2022-07-29T19:23:21.902Z,29.17
2022-07-29T19:25:53.628Z,29.15
2022-07-29T19:28:22.366Z,29.01
2022-07-29T19:30:50.844Z,28.70
2022-07-29T19:33:20.988Z,28.82
2022-07-29T19:35:54.340Z,28.73
2022-07-29T19:38:23.595Z,28.57
2022-07-29T19:40:51.967Z,28.43
2022-07-29T19:43:50.942Z,28.43
2022-07-29T19:46:08.277Z,28.31
2022-07-29T19:48:38.162Z,28.32
2022-07-29T19:51:06.493Z,28.31
2022-07-29T19:53:34.642Z,28.25
2022-07-29T19:56:02.763Z,28.10
2022-07-29T19:58:31.442Z,28.10
2022-07-29T20:01:00.636Z,28.00
2022-07-29T20:03:28.826Z,27.85
2022-07-29T20:05:58.294Z,27.84
2022-07-29T20:08:26.442Z,27.79
2022-07-29T20:10:55.084Z,27.73
2022-07-29T20:13:23.205Z,27.65
2022-07-29T20:15:51.397Z,27.67
2022-07-29T20:18:19.554Z,27.61
2022-07-29T20:20:49.645Z,27.64
2022-07-29T20:23:22.182Z,27.65
2022-07-29T20:25:50.409Z,27.55
2022-07-29T20:28:18.516Z,27.54
2022-07-29T20:30:47.491Z,27.26
2022-07-29T20:33:16.266Z,27.38
2022-07-29T20:35:44.567Z,27.39
2022-07-29T20:38:17.787Z,27.32
2022-07-29T20:40:47.807Z,27.28
2022-07-29T20:43:15.916Z,27.26
2022-07-29T20:45:44.022Z,27.28
2022-07-29T20:48:13.510Z,27.05
2022-07-29T20:50:42.693Z,26.93
2022-07-29T20:53:10.834Z,26.81
2022-07-29T20:55:39.474Z,26.76
2022-07-29T20:58:08.973Z,26.68
2022-07-29T21:00:37.325Z,26.48
2022-07-29T21:03:05.548Z,26.40
2022-07-29T21:05:33.905Z,26.13
2022-07-29T21:08:02.005Z,26.19
2022-07-29T21:10:30.426Z,26.03
2022-07-29T21:12:58.606Z,25.91
2022-07-29T21:15:29.708Z,25.81
2022-07-29T21:18:02.167Z,25.63
2022-07-29T21:20:34.538Z,25.65
2022-07-29T21:23:02.944Z,25.64
2022-07-29T21:25:31.065Z,25.56
2022-07-29T21:28:16.522Z,25.58
2022-07-29T21:30:46.170Z,25.35
2022-07-29T21:33:14.412Z,25.50
2022-07-29T21:36:00.902Z,25.45
2022-07-29T21:38:31.273Z,25.32
2022-07-29T21:40:59.786Z,25.37
2022-07-29T21:43:28.827Z,25.29
2022-07-29T21:45:59.464Z,25.26
2022-07-29T21:48:29.301Z,25.08
2022-07-29T21:50:58.322Z,25.05
2022-07-29T21:53:28.056Z,25.21
2022-07-29T21:55:56.177Z,25.11
2022-07-29T21:58:24.837Z,24.91
2022-07-29T22:00:53.986Z,24.83
2022-07-29T22:03:23.597Z,24.78
2022-07-29T22:05:54.217Z,24.68
2022-07-29T22:08:22.283Z,24.62
2022-07-29T22:10:50.411Z,24.54
2022-07-29T22:13:18.458Z,24.60
2022-07-29T22:15:47.270Z,24.50
2022-07-29T22:18:19.483Z,24.62
2022-07-29T22:20:51.121Z,24.71
2022-07-29T22:23:19.287Z,24.60
2022-07-29T22:25:47.399Z,24.56
2022-07-29T22:28:15.507Z,24.62
2022-07-29T22:30:43.981Z,24.41
2022-07-29T22:33:18.065Z,24.50
2022-07-29T22:35:48.437Z,24.60
2022-07-29T22:38:18.899Z,24.63
2022-07-29T22:40:48.690Z,24.69
2022-07-29T22:43:18.697Z,24.61
2022-07-29T22:45:47.007Z,24.53
2022-07-29T22:48:15.234Z,24.59
2022-07-29T22:50:43.327Z,24.43
2022-07-29T22:53:11.481Z,24.32
2022-07-29T22:55:40.977Z,24.45
2022-07-29T22:58:09.409Z,24.46
2022-07-29T23:00:37.623Z,24.52
2022-07-29T23:03:05.750Z,24.18
2022-07-29T23:05:34.101Z,24.19
2022-07-29T23:08:02.240Z,24.02
2022-07-29T23:10:30.482Z,24.19
2022-07-29T23:12:59.900Z,23.90
2022-07-29T23:15:27.952Z,24.03
2022-07-29T23:17:56.596Z,24.03
2022-07-29T23:20:24.713Z,24.10
2022-07-29T23:22:52.885Z,23.81
2022-07-29T23:25:21.120Z,24.13
2022-07-29T23:27:49.193Z,23.84
2022-07-29T23:30:18.756Z,23.93
2022-07-29T23:32:46.880Z,24.13
2022-07-29T23:35:14.945Z,24.11
2022-07-29T23:37:43.001Z,24.01
2022-07-29T23:40:14.503Z,23.80
2022-07-29T23:42:43.704Z,23.67
2022-07-29T23:45:13.372Z,23.80
2022-07-29T23:47:43.532Z,23.76
2022-07-29T23:50:13.450Z,23.78
2022-07-29T23:52:42.309Z,23.76
2022-07-29T23:55:38.684Z,23.78
2022-07-29T23:57:59.456Z,23.68
